Terminal Aerodrome Forecast
Issued by NWS

Home | Current Version | Previous Version | Text Only | Print | Product List | Glossary On
Versions: 1 2 3 4 5 6 7 8 9 10 11 12 13 14 15 16 17 18 19 20 21 22
000
FTUS43 KIND 271147 AAA
TAFBMG
TAF AMD
KBMG 271147Z 2712/2812 27004KT P6SM OVC010
     FM271400 27004KT P6SM BKN020
     FM271600 27004KT P6SM BKN040
     FM280600 17005KT P6SM SHRA VCTS BKN030CB
     FM281100 18005KT P6SM BKN030
      AMD LTD TO CLD VIS AND WIND TIL 271300=

USA.gov is the U.S. government's official web portal to all federal, state and local government web resources and services.